Time;durP1;ratioP1;P1;durP2;ratioP2;P2;SDS_P1;SDS_P2;PMS_P1;PMS_P2;Temp;Humidity;BMP_temperature;BMP_pressure;BME280_temperature;BME280_humidity;BME280_pressure;Samples;Min_cycle;Max_cycle;Signal;HPM_P1;HPM_P2
2024/02/07 00:01:39;;;;;;;6.15;1.85;;;;;;;6.94;66.05;98342.19;4920031;28;102715;-68
2024/02/07 00:04:06;;;;;;;6.93;2.13;;;;;;;6.96;65.38;98334.97;4913812;28;102905;-68
2024/02/07 00:06:35;;;;;;;5.80;1.85;;;;;;;6.94;65.39;98337.78;4919232;28;104098;-68
2024/02/07 00:09:05;;;;;;;5.28;1.60;;;;;;;7.01;65.68;98337.97;4933737;28;103258;-68
2024/02/07 00:11:36;;;;;;;4.38;1.75;;;;;;;6.96;65.45;98334.97;4907838;28;102687;-68
2024/02/07 00:14:07;;;;;;;4.35;1.60;;;;;;;6.88;65.71;98333.09;4917591;28;102803;-68
2024/02/07 00:16:35;;;;;;;4.60;1.77;;;;;;;6.91;65.43;98324.91;4913820;28;104455;-68
2024/02/07 00:19:03;;;;;;;5.85;1.60;;;;;;;6.91;66.08;98321.44;4922563;28;102710;-68
2024/02/07 00:21:31;;;;;;;7.05;1.85;;;;;;;6.93;65.78;98315.06;4921496;28;103164;-68
2024/02/07 00:23:59;;;;;;;6.28;1.80;;;;;;;6.87;66.10;98312.22;4925334;28;103286;-68
2024/02/07 00:26:27;;;;;;;8.52;2.55;;;;;;;6.82;66.19;98311.84;4922464;28;103314;-68
2024/02/07 00:28:57;;;;;;;5.18;1.70;;;;;;;6.74;66.06;98308.16;4924326;28;103459;-67
2024/02/07 00:31:26;;;;;;;7.05;1.55;;;;;;;6.78;66.07;98306.88;4924751;28;102604;-67
2024/02/07 00:33:54;;;;;;;5.78;2.20;;;;;;;6.70;66.47;98304.19;4921513;28;104249;-68
2024/02/07 00:36:22;;;;;;;3.95;1.70;;;;;;;6.73;66.02;98293.34;4924411;28;103922;-68
2024/02/07 00:38:50;;;;;;;4.45;1.77;;;;;;;6.67;66.08;98293.97;4927014;28;103732;-69
2024/02/07 00:41:22;;;;;;;6.72;1.45;;;;;;;6.69;66.67;98307.78;4917736;28;102756;-68
2024/02/07 00:43:50;;;;;;;4.10;1.90;;;;;;;6.74;66.70;98309.97;4925639;28;103749;-68
2024/02/07 00:46:19;;;;;;;3.15;1.35;;;;;;;6.76;66.54;98303.56;4903358;28;103231;-68
2024/02/07 00:48:49;;;;;;;5.13;1.58;;;;;;;6.77;66.41;98302.59;4934273;28;103270;-68
2024/02/07 00:51:18;;;;;;;5.05;1.73;;;;;;;6.73;66.68;98284.63;4921700;28;102628;-68
2024/02/07 00:53:45;;;;;;;3.92;1.60;;;;;;;6.81;66.27;98287.31;4921524;28;103128;-68
2024/02/07 00:56:13;;;;;;;6.80;2.17;;;;;;;6.86;66.16;98284.22;4918579;28;103192;-68
2024/02/07 00:58:41;;;;;;;10.32;1.75;;;;;;;6.85;66.49;98283.41;4923108;28;103327;-68
2024/02/07 01:01:09;;;;;;;6.15;1.67;;;;;;;6.85;66.59;98274.66;4917444;28;102772;-69
2024/02/07 01:03:39;;;;;;;5.00;1.70;;;;;;;6.80;66.69;98278.59;4915652;28;102682;-68
2024/02/07 01:06:07;;;;;;;5.45;2.10;;;;;;;6.91;66.34;98279.31;4903805;28;104116;-68
2024/02/07 01:08:35;;;;;;;5.93;1.70;;;;;;;6.91;66.28;98284.59;4918816;28;103079;-68
2024/02/07 01:11:03;;;;;;;5.60;1.58;;;;;;;6.94;66.65;98273.75;4905379;28;102792;-68
2024/02/07 01:13:31;;;;;;;2.08;1.30;;;;;;;6.85;66.35;98285.19;4922289;28;104150;-68
2024/02/07 01:15:59;;;;;;;3.88;1.63;;;;;;;6.89;66.81;98286.53;4917418;28;103372;-68
2024/02/07 01:18:27;;;;;;;4.85;1.42;;;;;;;6.95;66.16;98275.41;4904717;28;104132;-68
2024/02/07 01:20:56;;;;;;;6.70;1.75;;;;;;;6.88;66.60;98274.38;4903477;28;102670;-68
2024/02/07 01:23:24;;;;;;;4.35;1.80;;;;;;;6.88;66.57;98266.47;4920352;28;102753;-69
2024/02/07 01:25:52;;;;;;;5.10;1.88;;;;;;;6.86;66.56;98256.09;4921614;28;103313;-69
2024/02/07 01:28:20;;;;;;;5.63;3.10;;;;;;;6.85;67.31;98258.88;4936191;28;103209;-68
2024/02/07 01:30:48;;;;;;;5.88;1.77;;;;;;;6.82;66.42;98240.78;4899586;28;102647;-68
2024/02/07 01:33:17;;;;;;;5.90;1.60;;;;;;;6.88;66.38;98240.16;4910152;28;102856;-68
2024/02/07 01:35:46;;;;;;;4.00;1.95;;;;;;;6.87;66.40;98238.50;4918287;28;103241;-68
2024/02/07 01:38:18;;;;;;;5.00;1.80;;;;;;;6.88;66.18;98227.00;4919200;28;103367;-68
2024/02/07 01:40:47;;;;;;;8.38;1.73;;;;;;;6.80;67.00;98225.94;4916514;28;102715;-68
2024/02/07 01:43:16;;;;;;;6.07;2.05;;;;;;;6.79;66.77;98226.13;4901140;28;102716;-68
2024/02/07 01:45:44;;;;;;;7.65;2.13;;;;;;;6.80;66.96;98231.22;4915365;28;103909;-68
2024/02/07 01:48:12;;;;;;;7.70;2.20;;;;;;;6.80;66.70;98225.13;4921329;28;103316;-68
2024/02/07 01:50:41;;;;;;;4.93;1.75;;;;;;;6.82;67.21;98227.59;4915620;28;103149;-68
2024/02/07 01:53:11;;;;;;;6.13;1.92;;;;;;;6.77;67.09;98220.16;4917928;28;104144;-68
2024/02/07 01:55:44;;;;;;;9.85;2.40;;;;;;;6.81;67.43;98226.75;4915824;28;104039;-68
2024/02/07 01:58:13;;;;;;;9.52;2.20;;;;;;;6.78;67.66;98217.38;4915694;28;102996;-68
2024/02/07 02:00:41;;;;;;;7.82;1.98;;;;;;;6.79;67.33;98213.75;4918176;28;102669;-68
2024/02/07 02:03:10;;;;;;;7.13;1.90;;;;;;;6.78;67.66;98214.75;4913833;28;104127;-68
2024/02/07 02:05:40;;;;;;;10.90;2.20;;;;;;;6.80;67.47;98198.81;4917127;28;103225;-68
2024/02/07 02:08:08;;;;;;;4.47;1.73;;;;;;;6.89;67.23;98202.28;4915119;28;103220;-68
2024/02/07 02:10:37;;;;;;;5.70;2.00;;;;;;;6.90;67.21;98199.50;4915672;28;102916;-68
2024/02/07 02:13:06;;;;;;;7.65;2.40;;;;;;;6.94;67.18;98194.75;4909651;28;104483;-67
2024/02/07 02:15:34;;;;;;;6.03;2.05;;;;;;;6.92;66.95;98188.84;4903674;28;104401;-67
2024/02/07 02:18:02;;;;;;;7.43;2.17;;;;;;;6.87;67.03;98183.22;4918284;28;102771;-67
2024/02/07 02:20:30;;;;;;;5.57;2.13;;;;;;;6.85;67.31;98190.44;4919760;28;102744;-67
2024/02/07 02:23:26;;;;;;;6.68;1.90;;;;;;;6.89;67.31;98186.50;4921324;28;104068;-66
2024/02/07 02:26:14;;;;;;;4.43;1.92;;;;;;;6.85;67.74;98183.38;4915875;28;103748;-67
2024/02/07 02:28:56;;;;;;;6.53;1.77;;;;;;;6.78;67.64;98179.72;4918041;28;103428;-67
2024/02/07 02:31:26;;;;;;;4.40;1.77;;;;;;;6.78;67.81;98177.06;4918855;28;102726;-67
2024/02/07 02:33:57;;;;;;;4.55;2.10;;;;;;;6.73;68.06;98171.47;4917092;28;104941;-67
2024/02/07 02:36:26;;;;;;;4.15;1.83;;;;;;;6.74;67.86;98168.66;4903443;28;103205;-66
2024/02/07 02:38:54;;;;;;;4.65;2.13;;;;;;;6.69;68.19;98165.66;4923696;28;103258;-67
2024/02/07 02:41:23;;;;;;;5.78;1.83;;;;;;;6.71;68.42;98155.00;4923324;28;102655;-67
2024/02/07 02:43:52;;;;;;;3.15;1.30;;;;;;;6.72;68.43;98146.13;4928901;28;102677;-67
2024/02/07 02:46:20;;;;;;;8.95;1.90;;;;;;;6.67;68.33;98136.06;4916634;28;103964;-68
2024/02/07 02:48:52;;;;;;;6.90;2.00;;;;;;;6.70;68.39;98146.28;4910859;28;103227;-67
2024/02/07 02:51:23;;;;;;;7.18;2.35;;;;;;;6.74;68.23;98144.97;4909060;28;102619;-67
2024/02/07 02:53:52;;;;;;;5.32;1.60;;;;;;;6.75;68.09;98138.72;4926522;28;104160;-67
2024/02/07 02:56:20;;;;;;;6.68;1.70;;;;;;;6.72;68.59;98133.78;4923688;28;104255;-67
2024/02/07 02:58:48;;;;;;;4.15;1.73;;;;;;;6.77;68.72;98128.88;4905826;28;103318;-67
2024/02/07 03:01:16;;;;;;;8.10;1.63;;;;;;;6.76;68.43;98127.22;4923346;28;102671;-67
2024/02/07 03:03:53;;;;;;;2.88;1.38;;;;;;;6.71;68.62;98129.50;4907976;28;104059;-67
2024/02/07 03:06:32;;;;;;;6.57;1.90;;;;;;;6.74;68.17;98118.66;4924180;28;103260;-67
2024/02/07 03:09:07;;;;;;;5.35;2.17;;;;;;;6.80;68.44;98118.03;4933497;28;103849;-67
2024/02/07 03:11:36;;;;;;;4.57;1.58;;;;;;;6.82;68.18;98117.06;4926366;28;102810;-67
2024/02/07 03:14:05;;;;;;;4.50;1.70;;;;;;;6.82;68.66;98103.91;4927552;28;102735;-67
2024/02/07 03:16:34;;;;;;;6.55;1.85;;;;;;;6.84;68.76;98112.44;4926794;28;104093;-67
2024/02/07 03:19:02;;;;;;;3.67;1.25;;;;;;;6.87;68.78;98120.03;4926437;28;103217;-67
2024/02/07 03:21:31;;;;;;;6.60;1.90;;;;;;;6.88;68.54;98113.81;4919158;28;102753;-67
2024/02/07 03:23:59;;;;;;;4.03;1.65;;;;;;;6.88;68.97;98105.91;4927329;28;104273;-67
2024/02/07 03:26:27;;;;;;;3.33;1.48;;;;;;;6.89;68.36;98102.25;4926596;28;104378;-67
2024/02/07 03:28:56;;;;;;;4.72;1.38;;;;;;;6.89;68.71;98105.72;4921449;28;103050;-67
2024/02/07 03:31:24;;;;;;;3.90;1.65;;;;;;;6.95;68.46;98117.44;4922950;28;102640;-67
2024/02/07 03:33:52;;;;;;;6.97;1.80;;;;;;;7.00;68.38;98114.34;4922762;28;104107;-67
2024/02/07 03:36:21;;;;;;;11.07;1.92;;;;;;;6.96;68.18;98108.56;4909202;28;104468;-67
2024/02/07 03:38:50;;;;;;;7.50;2.10;;;;;;;7.08;68.69;98112.53;4927250;28;103302;-67
2024/02/07 03:41:18;;;;;;;5.30;1.58;;;;;;;7.01;68.34;98106.28;4923911;28;102596;-67
2024/02/07 03:43:47;;;;;;;8.20;1.70;;;;;;;6.94;69.12;98100.81;4933743;28;103761;-67
2024/02/07 03:46:15;;;;;;;5.30;1.70;;;;;;;7.00;68.84;98094.09;4908494;28;103154;-67
2024/02/07 03:48:42;;;;;;;4.68;1.58;;;;;;;7.01;68.44;98094.91;4926358;28;103217;-67
2024/02/07 03:51:15;;;;;;;4.07;1.63;;;;;;;7.00;68.39;98094.09;4923803;28;102565;-67
2024/02/07 03:53:44;;;;;;;8.82;1.90;;;;;;;7.05;68.65;98094.44;4930610;28;103438;-68
2024/02/07 03:56:14;;;;;;;7.32;1.50;;;;;;;7.08;68.35;98091.47;4905551;28;103266;-67
2024/02/07 03:58:42;;;;;;;3.50;1.50;;;;;;;7.10;68.69;98092.13;4909865;28;103010;-67
2024/02/07 04:01:18;;;;;;;4.82;1.65;;;;;;;7.11;68.60;98091.16;4918520;28;102997;-67
2024/02/07 04:03:47;;;;;;;;;;;;;;;7.09;68.69;98077.31;4910599;28;104220;-67
2024/02/07 04:06:15;;;;;;;4.63;1.77;;;;;;;7.09;68.50;98082.59;4898900;28;103208;-67
2024/02/07 04:08:46;;;;;;;5.03;1.90;;;;;;;7.19;67.95;98084.25;4917010;28;103199;-67
2024/02/07 05:20:12;;;;;;;3.55;1.23;;;;;;;7.63;67.43;98010.19;4927647;28;102783;-68
2024/02/07 05:22:40;;;;;;;4.88;1.42;;;;;;;7.58;67.68;98007.22;4918612;28;102838;-68
2024/02/07 05:25:09;;;;;;;4.45;1.40;;;;;;;7.62;67.86;98011.16;4927538;28;104670;-68
2024/02/07 05:36:18;;;;;;;4.75;1.42;;;;;;;7.60;68.45;97998.16;4908298;28;104305;-71
2024/02/07 05:38:46;;;;;;;3.97;1.40;;;;;;;7.60;68.33;98007.88;4914532;28;103048;-70
2024/02/07 05:41:16;;;;;;;4.85;1.80;;;;;;;7.61;68.43;98006.88;4915237;28;103705;-69
2024/02/07 05:43:44;;;;;;;4.53;1.70;;;;;;;7.63;68.15;98002.28;4920867;28;102681;-71
2024/02/07 05:46:12;;;;;;;4.35;1.70;;;;;;;7.66;68.43;97993.22;4922410;28;104266;-72
2024/02/07 05:48:40;;;;;;;4.20;1.60;;;;;;;7.67;68.25;97990.41;4905393;28;103232;-70
2024/02/07 05:51:20;;;;;;;4.95;1.98;;;;;;;7.63;67.80;97999.63;4915800;28;103335;-69
2024/02/07 05:53:48;;;;;;;4.78;1.80;;;;;;;7.66;68.39;97996.66;4904112;28;103891;-69
2024/02/07 05:56:16;;;;;;;4.57;1.75;;;;;;;7.61;68.14;97991.06;4905009;28;104027;-70
2024/02/07 05:58:46;;;;;;;5.15;2.20;;;;;;;7.61;68.10;97985.78;4919172;28;104171;-70
2024/02/07 06:01:15;;;;;;;5.18;1.67;;;;;;;7.60;68.08;97984.16;4898483;28;103228;-71
2024/02/07 06:03:45;;;;;;;4.15;2.03;;;;;;;7.62;68.73;97983.00;4897913;28;102749;-72
2024/02/07 06:06:13;;;;;;;5.15;1.98;;;;;;;7.60;68.11;97984.16;4913432;28;104393;-73
2024/02/07 06:08:42;;;;;;;3.63;1.80;;;;;;;7.58;68.68;97959.78;4930387;28;103329;-68
2024/02/07 06:11:12;;;;;;;7.50;2.05;;;;;;;7.55;68.52;97962.75;4930398;28;103220;-72
2024/02/07 06:13:41;;;;;;;4.38;1.98;;;;;;;7.56;68.52;97952.03;4905952;28;102731;-72
2024/02/07 06:16:11;;;;;;;6.53;2.40;;;;;;;7.50;68.90;97947.44;4928345;28;103969;-71
2024/02/07 06:18:39;;;;;;;5.78;2.25;;;;;;;7.54;69.20;97946.09;4917241;28;104575;-71
2024/02/07 06:21:07;;;;;;;9.52;2.25;;;;;;;7.46;68.84;97936.41;4908773;28;105526;-70
2024/02/07 06:23:35;;;;;;;7.35;2.17;;;;;;;7.54;69.21;97926.84;4907356;28;103204;-68
2024/02/07 06:26:04;;;;;;;5.07;2.03;;;;;;;7.52;69.20;97934.94;4914517;28;104250;-67
2024/02/07 06:28:32;;;;;;;4.03;1.90;;;;;;;7.54;68.56;97927.66;4912300;28;104283;-68
2024/02/07 06:31:00;;;;;;;8.32;2.08;;;;;;;7.49;69.22;97929.16;4922518;28;103185;-68
2024/02/07 06:33:28;;;;;;;5.35;2.00;;;;;;;7.54;68.74;97937.38;4909326;28;102788;-68
2024/02/07 06:35:57;;;;;;;6.13;2.10;;;;;;;7.56;68.74;97932.75;4924521;28;102923;-68
2024/02/07 06:38:25;;;;;;;6.60;2.25;;;;;;;7.57;69.07;97942.31;4921302;28;103418;-68
2024/02/07 06:40:52;;;;;;;7.15;1.98;;;;;;;7.62;68.48;97945.28;4922825;28;103211;-68
2024/02/07 06:47:48;;;;;;;6.85;2.10;;;;;;;7.60;68.65;97953.34;4925884;28;102674;-68
2024/02/07 06:50:16;;;;;;;7.68;2.25;;;;;;;7.66;68.27;97946.56;4915596;28;104167;-75
2024/02/07 06:52:47;;;;;;;4.63;2.08;;;;;;;7.68;68.52;97941.97;4919926;28;103298;-79
2024/02/07 06:55:18;;;;;;;9.93;2.15;;;;;;;7.73;67.62;97942.28;4920914;28;102657;-79
2024/02/07 06:57:47;;;;;;;4.20;1.98;;;;;;;7.73;67.95;97947.56;4940040;28;103003;-76
2024/02/07 07:00:17;;;;;;;8.57;2.50;;;;;;;7.75;68.21;97953.47;4936987;28;103403;-78
2024/02/07 07:02:48;;;;;;;5.38;2.05;;;;;;;7.77;67.59;97948.88;4931088;28;103127;-78
2024/02/07 07:05:20;;;;;;;13.07;2.50;;;;;;;7.80;67.56;97959.06;4939791;28;102663;-80
2024/02/07 07:07:48;;;;;;;6.43;2.47;;;;;;;7.82;67.23;97952.81;4909448;28;104387;-79
2024/02/07 07:10:19;;;;;;;10.38;2.17;;;;;;;7.84;67.29;97956.13;4926866;28;103278;-81
2024/02/07 07:12:47;;;;;;;10.98;2.30;;;;;;;7.85;67.05;97960.38;4928895;28;103234;-80
2024/02/07 07:15:15;;;;;;;9.15;2.15;;;;;;;7.91;67.48;97955.28;4936627;28;102627;-83
2024/02/07 07:26:42;;;;;;;8.68;2.10;;;;;;;8.06;66.52;97950.09;4921731;28;103238;-82
2024/02/07 07:29:11;;;;;;;7.63;2.20;;;;;;;7.93;66.96;97941.91;4915342;28;102970;-80
2024/02/07 07:31:39;;;;;;;7.40;2.03;;;;;;;8.00;66.27;97940.22;4933089;28;102629;-84
2024/02/07 07:42:46;;;;;;;8.20;2.27;;;;;;;8.06;66.20;97942.19;4934953;28;102729;-79
2024/02/07 07:45:14;;;;;;;12.93;2.65;;;;;;;8.07;65.90;97945.63;4935571;28;102738;-75
2024/02/07 07:47:41;;;;;;;6.45;2.65;;;;;;;8.10;65.95;97943.50;4935176;28;103093;-77
2024/02/07 07:50:10;;;;;;;7.68;2.30;;;;;;;8.12;66.24;97936.25;4934663;28;103206;-80
2024/02/07 07:52:39;;;;;;;8.07;2.60;;;;;;;8.20;65.98;97934.56;4921888;28;102655;-79
2024/02/07 07:55:07;;;;;;;9.63;2.17;;;;;;;8.16;65.57;97923.50;4935433;28;104047;-79
2024/02/07 07:57:37;;;;;;;9.50;2.22;;;;;;;8.24;66.07;97934.06;4930121;28;103281;-80
2024/02/07 08:00:08;;;;;;;8.15;2.30;;;;;;;8.26;65.52;97920.69;4910502;28;104128;-79
2024/02/07 08:02:38;;;;;;;8.38;2.05;;;;;;;8.25;65.23;97916.38;4930285;28;102705;-78
2024/02/07 08:05:07;;;;;;;7.80;2.50;;;;;;;8.24;66.05;97922.66;4933917;28;104142;-80
2024/02/07 08:07:35;;;;;;;6.40;2.30;;;;;;;8.30;65.72;97916.69;4943457;28;103781;-77
2024/02/07 08:10:03;;;;;;;6.47;2.33;;;;;;;8.29;64.95;97934.34;4934076;28;103407;-77
2024/02/07 08:12:31;;;;;;;6.60;2.47;;;;;;;8.30;65.36;97925.44;4927086;28;103314;-79
2024/02/07 08:14:58;;;;;;;7.03;2.42;;;;;;;8.33;65.60;97926.09;4925307;28;102925;-80
2024/02/07 08:17:28;;;;;;;11.10;2.50;;;;;;;8.36;65.45;97926.56;4930275;28;103196;-79
2024/02/07 08:19:55;;;;;;;8.32;2.35;;;;;;;8.46;65.62;97921.94;4937045;28;103355;-78
2024/02/07 08:22:23;;;;;;;8.13;2.35;;;;;;;8.44;65.51;97923.06;4925195;28;102682;-77
2024/02/07 08:24:54;;;;;;;14.20;2.35;;;;;;;8.43;65.16;97924.88;4936141;28;104118;-77
2024/02/07 08:27:22;;;;;;;8.52;2.45;;;;;;;8.45;65.15;97922.91;4922293;28;104367;-78
2024/02/07 08:29:50;;;;;;;6.93;2.22;;;;;;;8.46;65.44;97919.28;4935581;28;103224;-77
2024/02/07 08:32:18;;;;;;;8.30;3.25;;;;;;;8.49;65.19;97917.28;4926095;28;102970;-77
2024/02/07 08:34:47;;;;;;;8.10;2.22;;;;;;;8.52;65.14;97915.13;4925874;28;104244;-78
2024/02/07 08:37:15;;;;;;;6.15;2.13;;;;;;;8.59;64.96;97909.97;4927882;28;103113;-77
2024/02/07 08:39:46;;;;;;;4.20;1.90;;;;;;;8.54;65.13;97902.59;4928157;28;103196;-77
2024/02/07 08:42:14;;;;;;;10.20;2.67;;;;;;;8.62;64.64;97914.91;4924816;28;102913;-77
2024/02/07 08:44:42;;;;;;;5.82;2.50;;;;;;;8.63;64.83;97908.63;4930280;28;102843;-78
2024/02/07 08:47:10;;;;;;;7.32;2.45;;;;;;;8.65;65.37;97909.28;4926074;28;103150;-78
2024/02/07 08:49:38;;;;;;;5.38;2.28;;;;;;;8.68;65.00;97897.53;4937311;28;104141;-77
2024/02/07 08:52:07;;;;;;;11.30;2.53;;;;;;;8.66;64.86;97895.09;4934290;28;102717;-77
2024/02/07 08:54:35;;;;;;;7.80;2.65;;;;;;;8.78;65.16;97904.22;4928856;28;102790;-77
2024/02/07 08:57:04;;;;;;;9.60;2.35;;;;;;;8.70;65.08;97900.81;4931397;28;103230;-77
2024/02/07 08:59:32;;;;;;;5.72;2.30;;;;;;;8.73;64.82;97898.66;4928775;28;103300;-77
2024/02/07 09:01:59;;;;;;;6.15;2.00;;;;;;;8.73;65.34;97906.56;4927923;28;102679;-77
2024/02/07 09:04:27;;;;;;;10.15;2.20;;;;;;;8.70;65.33;97912.22;4933459;28;104008;-78
2024/02/07 09:06:55;;;;;;;7.07;2.33;;;;;;;8.75;65.54;97909.88;4931280;28;104988;-78
2024/02/07 09:09:25;;;;;;;11.68;2.78;;;;;;;8.83;64.84;97901.06;4933248;28;103205;-78
2024/02/07 09:11:53;;;;;;;8.27;2.30;;;;;;;8.84;65.06;97901.88;4921810;28;102704;-77
2024/02/07 09:14:21;;;;;;;6.03;2.20;;;;;;;8.89;65.07;97888.97;4921477;28;102658;-77
2024/02/07 09:16:49;;;;;;;13.65;2.63;;;;;;;8.93;65.13;97901.66;4924112;28;103414;-78
2024/02/07 09:19:17;;;;;;;8.70;2.38;;;;;;;8.95;65.07;97893.56;4918645;28;103195;-77
2024/02/07 09:21:45;;;;;;;10.25;2.42;;;;;;;8.97;64.50;97891.53;4919453;28;102748;-77
2024/02/07 09:24:14;;;;;;;8.32;2.47;;;;;;;9.03;64.29;97885.56;4918881;28;102656;-77
2024/02/07 09:26:43;;;;;;;8.35;2.25;;;;;;;9.03;64.41;97875.00;4919964;28;103185;-77
2024/02/07 09:29:11;;;;;;;10.05;2.60;;;;;;;9.02;64.50;97878.63;4919098;28;103487;-77
2024/02/07 09:31:39;;;;;;;8.48;2.50;;;;;;;9.22;64.59;97878.97;4919834;28;102667;-78
2024/02/07 09:34:07;;;;;;;8.00;2.20;;;;;;;9.13;64.56;97875.56;4921864;28;104316;-78
2024/02/07 09:36:38;;;;;;;10.32;2.65;;;;;;;9.16;64.13;97870.91;4932058;28;104344;-78
2024/02/07 09:39:07;;;;;;;7.45;2.22;;;;;;;9.09;64.37;97884.84;4930137;28;103222;-78
2024/02/07 09:41:38;;;;;;;6.55;2.50;;;;;;;9.16;64.71;97878.81;4931521;28;102601;-78
2024/02/07 09:44:12;;;;;;;7.43;2.13;;;;;;;9.15;64.52;97874.56;4940446;28;103352;-77
2024/02/07 09:46:43;;;;;;;9.90;2.42;;;;;;;9.13;64.46;97872.09;4935625;28;103770;-77
2024/02/07 09:49:14;;;;;;;6.03;2.00;;;;;;;9.16;64.05;97878.81;4940236;28;103228;-77
2024/02/07 09:51:44;;;;;;;5.57;2.10;;;;;;;9.17;64.23;97864.63;4944035;28;102671;-77
2024/02/07 09:54:13;;;;;;;7.03;2.38;;;;;;;9.18;64.29;97867.09;4940313;28;104183;-78
2024/02/07 09:56:43;;;;;;;6.53;2.20;;;;;;;9.25;64.00;97867.22;4932114;28;104135;-77
2024/02/07 09:59:13;;;;;;;5.70;1.83;;;;;;;9.23;63.78;97880.56;4922078;28;103504;-77
2024/02/07 10:01:46;;;;;;;6.35;2.20;;;;;;;9.27;63.74;97867.84;4927463;28;102706;-77
2024/02/07 10:04:18;;;;;;;8.27;2.10;;;;;;;9.46;63.45;97867.31;4909022;28;104201;-77
2024/02/07 10:06:47;;;;;;;5.75;2.10;;;;;;;9.48;63.26;97863.66;4913135;28;104129;-79
2024/02/07 10:09:15;;;;;;;6.43;1.98;;;;;;;9.58;63.30;97869.50;4948688;28;103220;-80
2024/02/07 10:11:46;;;;;;;8.80;2.20;;;;;;;9.57;63.45;97870.50;4925952;28;102745;-81
2024/02/07 10:14:16;;;;;;;7.15;2.00;;;;;;;9.77;62.78;97882.19;4944444;28;103608;-81
2024/02/07 10:16:45;;;;;;;6.53;1.88;;;;;;;9.90;62.82;97867.47;4937717;28;104156;-78
2024/02/07 10:19:15;;;;;;;4.80;1.90;;;;;;;9.89;62.29;97863.19;4905321;28;104237;-78
2024/02/07 10:21:43;;;;;;;7.57;2.10;;;;;;;9.79;62.49;97864.28;4935355;28;102559;-78
2024/02/07 10:24:11;;;;;;;8.85;2.05;;;;;;;9.74;62.79;97858.72;4908119;28;104232;-79
2024/02/07 10:26:39;;;;;;;4.13;1.70;;;;;;;9.71;62.57;97851.19;4924584;28;102991;-79
2024/02/07 10:29:08;;;;;;;4.82;1.80;;;;;;;9.80;62.65;97846.63;4936588;28;103052;-78
2024/02/07 10:31:37;;;;;;;5.50;2.20;;;;;;;9.85;62.64;97851.34;4927711;28;102708;-77
2024/02/07 10:34:05;;;;;;;5.03;1.50;;;;;;;9.83;62.22;97858.66;4933332;28;103956;-78
2024/02/07 10:36:33;;;;;;;7.28;1.90;;;;;;;9.86;62.39;97850.34;4911272;28;104046;-78
2024/02/07 10:39:02;;;;;;;4.75;1.60;;;;;;;9.88;62.43;97862.38;4913999;28;103084;-77
2024/02/07 10:41:31;;;;;;;2.65;1.50;;;;;;;9.96;62.55;97849.03;4919151;28;102662;-78
2024/02/07 10:44:08;;;;;;;4.15;1.50;;;;;;;9.95;62.54;97841.31;4923190;28;103374;-78
2024/02/07 10:46:38;;;;;;;5.07;1.48;;;;;;;9.89;62.03;97849.97;4921334;28;103893;-78
2024/02/07 10:49:10;;;;;;;3.15;1.35;;;;;;;9.99;62.17;97847.84;4931024;28;103262;-78
2024/02/07 10:51:40;;;;;;;3.50;1.50;;;;;;;9.89;62.55;97847.31;4910098;28;102720;-78
2024/02/07 10:54:09;;;;;;;7.25;1.98;;;;;;;9.93;62.61;97830.06;4926022;28;102816;-79
2024/02/07 10:56:38;;;;;;;6.97;1.55;;;;;;;10.01;62.08;97829.16;4915726;28;103309;-78
2024/02/07 10:59:06;;;;;;;6.15;1.50;;;;;;;9.94;62.51;97826.44;4934275;28;103330;-78
2024/02/07 11:01:34;;;;;;;3.55;1.40;;;;;;;9.92;62.72;97826.63;4927113;28;102674;-78
2024/02/07 11:04:03;;;;;;;2.25;1.10;;;;;;;9.87;62.41;97814.97;4932799;28;104185;-78
2024/02/07 11:06:34;;;;;;;3.33;1.50;;;;;;;9.96;62.68;97819.94;4935066;28;103341;-78
2024/02/07 11:09:02;;;;;;;8.63;1.67;;;;;;;10.07;62.59;97812.53;4918936;28;103289;-78
2024/02/07 11:11:31;;;;;;;5.15;1.70;;;;;;;10.08;62.59;97807.06;4913939;28;102646;-78
2024/02/07 11:13:59;;;;;;;4.03;1.30;;;;;;;9.98;62.28;97803.88;4909809;28;104460;-78
2024/02/07 11:16:27;;;;;;;4.47;1.48;;;;;;;10.17;62.03;97801.66;4917780;28;104233;-78
2024/02/07 11:18:58;;;;;;;5.72;1.50;;;;;;;10.22;62.10;97792.16;4934892;28;103215;-78
2024/02/07 11:21:33;;;;;;;4.20;1.63;;;;;;;10.34;61.54;97791.66;4909204;28;104008;-77
2024/02/07 11:24:02;;;;;;;5.53;1.60;;;;;;;10.25;61.75;97788.31;4932642;28;102756;-79
2024/02/07 11:26:31;;;;;;;4.60;1.30;;;;;;;10.35;61.59;97780.03;4927793;28;104336;-77
2024/02/07 11:28:59;;;;;;;4.63;1.38;;;;;;;10.38;61.96;97782.38;4910387;28;104226;-77
2024/02/07 11:31:30;;;;;;;4.72;1.35;;;;;;;10.21;61.63;97797.63;4937336;28;102658;-77
2024/02/07 11:33:58;;;;;;;3.35;1.25;;;;;;;10.28;61.60;97783.47;4931814;28;104228;-77
2024/02/07 11:36:29;;;;;;;4.10;1.17;;;;;;;10.51;61.29;97779.84;4919793;28;104427;-77
2024/02/07 11:38:58;;;;;;;3.70;1.15;;;;;;;10.49;61.43;97778.38;4920009;28;103221;-77
2024/02/07 11:41:27;;;;;;;2.47;1.30;;;;;;;10.47;61.15;97760.03;4919989;28;102687;-75
2024/02/07 11:44:04;;;;;;;5.35;1.27;;;;;;;10.60;61.36;97764.63;4898730;28;102935;-74
2024/02/07 11:46:33;;;;;;;4.60;2.15;;;;;;;10.47;61.35;97753.91;4912173;28;104231;-74
2024/02/07 11:49:02;;;;;;;4.20;1.20;;;;;;;10.57;61.39;97754.41;4906186;28;104013;-79
2024/02/07 11:51:34;;;;;;;3.17;1.27;;;;;;;10.76;61.45;97742.34;4908284;28;102901;-77
2024/02/07 11:54:07;;;;;;;3.50;1.30;;;;;;;10.84;60.49;97742.19;4918035;28;103956;-76
2024/02/07 11:56:35;;;;;;;6.15;1.30;;;;;;;10.77;61.01;97747.44;4909153;28;102671;-79
2024/02/07 11:59:03;;;;;;;3.75;1.10;;;;;;;10.80;60.51;97742.78;4905496;28;103888;-72
2024/02/07 12:01:31;;;;;;;5.25;1.52;;;;;;;10.78;60.39;97738.50;4912881;28;102708;-74
2024/02/07 12:04:03;;;;;;;2.78;1.10;;;;;;;10.69;60.27;97730.88;4918401;28;103697;-77
2024/02/07 12:06:36;;;;;;;3.60;1.20;;;;;;;10.66;60.84;97737.38;4914601;28;104159;-76
2024/02/07 12:09:04;;;;;;;3.97;1.42;;;;;;;10.73;60.11;97732.97;4921981;28;102987;-78
2024/02/07 12:11:33;;;;;;;2.08;1.00;;;;;;;10.80;60.23;97737.50;4926457;28;102696;-82
2024/02/07 12:14:00;;;;;;;3.97;1.17;;;;;;;10.85;59.86;97729.78;4933850;28;102801;-83
2024/02/07 12:16:29;;;;;;;4.40;1.08;;;;;;;10.82;59.68;97724.84;4913539;28;104335;-81
2024/02/07 12:18:57;;;;;;;3.28;1.08;;;;;;;10.93;59.90;97726.97;4935956;28;103297;-83
2024/02/07 12:21:25;;;;;;;2.47;1.20;;;;;;;10.85;59.46;97720.00;4931356;28;102649;-85
2024/02/07 12:23:55;;;;;;;5.35;1.35;;;;;;;10.82;60.20;97722.22;4936898;28;102775;-77
2024/02/07 12:26:24;;;;;;;4.03;1.15;;;;;;;10.81;59.91;97718.75;4906678;28;104161;-77
2024/02/07 12:28:55;;;;;;;2.25;0.90;;;;;;;10.71;59.81;97716.44;4919119;28;103306;-77
2024/02/07 12:31:24;;;;;;;2.80;0.90;;;;;;;10.72;59.60;97715.41;4904675;28;102731;-78
2024/02/07 12:33:53;;;;;;;1.45;0.90;;;;;;;10.80;59.18;97716.31;4917992;28;104315;-78
2024/02/07 12:36:22;;;;;;;2.90;0.82;;;;;;;10.82;59.34;97719.56;4916224;28;104064;-78
2024/02/07 12:38:55;;;;;;;4.28;0.90;;;;;;;10.77;59.82;97726.25;4918417;28;103251;-77
2024/02/07 12:41:23;;;;;;;3.63;0.90;;;;;;;10.66;60.03;97721.47;4922255;28;102816;-79
2024/02/07 12:43:51;;;;;;;3.33;0.90;;;;;;;10.75;59.70;97715.03;4924329;28;103096;-79
2024/02/07 12:46:19;;;;;;;3.58;1.10;;;;;;;10.79;59.53;97710.16;4919156;28;104133;-78
2024/02/07 12:48:47;;;;;;;1.02;0.60;;;;;;;10.76;59.93;97706.06;4924902;28;103359;-82
2024/02/07 12:51:15;;;;;;;3.30;0.93;;;;;;;10.76;60.02;97703.44;4901219;28;102711;-79
2024/02/07 12:53:45;;;;;;;1.42;0.80;;;;;;;10.64;59.97;97702.34;4917710;28;104168;-84
2024/02/07 12:56:18;;;;;;;1.90;0.90;;;;;;;10.61;60.22;97702.69;4921703;28;103990;-78
2024/02/07 12:58:46;;;;;;;4.30;0.88;;;;;;;10.76;60.10;97706.06;4915626;28;103224;-79
2024/02/07 13:01:20;;;;;;;1.35;0.80;;;;;;;10.66;60.34;97700.28;4917262;28;102659;-82
2024/02/07 13:03:54;;;;;;;2.60;0.75;;;;;;;10.56;60.97;97705.94;4919621;28;102761;-76
2024/02/07 13:06:22;;;;;;;3.38;1.05;;;;;;;10.46;61.28;97694.88;4923737;28;103232;-78
2024/02/07 13:08:51;;;;;;;3.15;0.90;;;;;;;10.46;61.35;97697.50;4920273;28;103152;-78
2024/02/07 13:11:20;;;;;;;1.00;0.82;;;;;;;10.53;61.27;97695.75;4915377;28;102862;-79
2024/02/07 13:13:48;;;;;;;2.80;1.08;;;;;;;10.58;61.43;97695.16;4898811;28;104519;-81
2024/02/07 13:16:16;;;;;;;4.40;1.35;;;;;;;10.51;61.45;97692.47;4902665;28;104531;-82
2024/02/07 13:18:47;;;;;;;1.85;0.90;;;;;;;10.39;61.55;97689.53;4915610;28;103104;-84
2024/02/07 13:21:16;;;;;;;1.30;0.75;;;;;;;10.28;61.71;97687.34;4920479;28;102687;-84